Time;durP1;ratioP1;P1;durP2;ratioP2;P2;SDS_P1;SDS_P2;PMS_P1;PMS_P2;Temp;Humidity;BMP_temperature;BMP_pressure;BME280_temperature;BME280_humidity;BME280_pressure;Samples;Min_cycle;Max_cycle;Signal;HPM_P1;HPM_P2
2021/08/10 00:00:05;;;;;;;0.10;0.10;;;16.20;99.90;;;;;;5084840;28;20549;-85
2021/08/10 00:02:31;;;;;;;0.10;0.10;;;16.00;99.90;;;;;;5076411;28;20253;-86
2021/08/10 00:04:56;;;;;;;0.10;0.10;;;16.00;99.90;;;;;;5077149;28;20184;-85
2021/08/10 00:07:23;;;;;;;0.10;0.10;;;15.80;99.90;;;;;;5076701;28;20589;-86
2021/08/10 00:09:48;;;;;;;0.20;0.20;;;15.60;99.90;;;;;;5074996;28;20182;-85
2021/08/10 00:12:14;;;;;;;0.20;0.20;;;15.40;99.90;;;;;;5065110;28;20202;-85
2021/08/10 00:14:39;;;;;;;0.33;0.23;;;15.40;99.90;;;;;;5076009;28;20193;-85
2021/08/10 00:17:06;;;;;;;0.10;0.10;;;15.40;99.90;;;;;;5076488;28;20214;-85
2021/08/10 00:19:31;;;;;;;0.60;0.20;;;15.30;99.90;;;;;;5091692;28;20216;-86
2021/08/10 00:21:57;;;;;;;0.10;0.10;;;15.20;99.90;;;;;;5076395;28;20214;-85
2021/08/10 00:24:22;;;;;;;0.77;0.77;;;15.10;99.90;;;;;;5076500;28;20266;-85
2021/08/10 00:26:48;;;;;;;0.63;0.40;;;15.10;99.90;;;;;;5094660;28;20186;-85
2021/08/10 00:29:14;;;;;;;0.30;0.30;;;15.30;99.90;;;;;;5094097;28;20185;-86
2021/08/10 00:31:39;;;;;;;0.10;0.10;;;15.30;99.90;;;;;;5094735;28;20186;-85
2021/08/10 00:34:05;;;;;;;0.10;0.10;;;15.40;99.90;;;;;;5080253;28;20235;-86
2021/08/10 00:36:30;;;;;;;0.20;0.20;;;15.40;99.90;;;;;;5076642;28;20689;-86
2021/08/10 00:38:56;;;;;;;0.10;0.10;;;15.50;99.90;;;;;;5094109;28;20181;-85
2021/08/10 00:41:22;;;;;;;0.80;0.30;;;15.40;99.90;;;;;;5075639;28;20222;-86
2021/08/10 00:43:48;;;;;;;0.07;0.07;;;15.30;99.90;;;;;;5075924;28;20240;-85
2021/08/10 00:46:15;;;;;;;0.10;0.10;;;15.20;99.90;;;;;;5076289;28;20228;-85
2021/08/10 00:48:42;;;;;;;0.27;0.27;;;15.10;99.90;;;;;;5075753;28;20194;-86
2021/08/10 00:51:11;;;;;;;0.10;0.10;;;15.20;99.90;;;;;;5073120;28;20183;-86
2021/08/10 00:53:37;;;;;;;0.10;0.10;;;15.20;99.90;;;;;;5092945;28;20219;-86
2021/08/10 00:56:04;;;;;;;0.30;0.30;;;15.40;99.90;;;;;;5076137;28;20674;-86
2021/08/10 00:58:31;;;;;;;0.10;0.10;;;15.40;99.90;;;;;;5093538;28;20218;-85
2021/08/10 01:00:57;;;;;;;0.30;0.20;;;15.60;99.90;;;;;;5075890;28;20213;-86
2021/08/10 01:03:22;;;;;;;0.87;0.60;;;15.60;99.90;;;;;;5089728;28;20284;-85
2021/08/10 01:05:49;;;;;;;0.10;0.10;;;15.70;99.90;;;;;;5075745;28;20543;-85
2021/08/10 01:08:40;;;;;;;0.13;0.13;;;15.70;99.90;;;;;;5093015;28;20179;-85
2021/08/10 01:11:15;;;;;;;0.33;0.33;;;15.70;99.90;;;;;;5075917;28;20188;-85
2021/08/10 01:14:09;;;;;;;0.10;0.10;;;15.70;99.90;;;;;;5090026;28;20214;-86
2021/08/10 01:16:44;;;;;;;0.10;0.10;;;15.80;99.90;;;;;;5067393;28;20675;-85
2021/08/10 01:19:42;;;;;;;0.37;0.30;;;15.80;99.90;;;;;;5073752;28;20550;-85
2021/08/10 01:22:09;;;;;;;0.33;0.20;;;15.70;99.90;;;;;;5088751;28;20682;-85
2021/08/10 01:24:40;;;;;;;0.40;0.20;;;15.40;99.90;;;;;;5077347;28;20197;-85
2021/08/10 01:27:28;;;;;;;0.13;0.13;;;15.40;99.90;;;;;;5071685;28;20613;-85
2021/08/10 01:30:06;;;;;;;0.20;0.20;;;15.30;99.90;;;;;;5052755;28;20256;-85
2021/08/10 01:32:33;;;;;;;0.10;0.10;;;15.00;99.90;;;;;;5092449;28;20197;-85
2021/08/10 01:34:59;;;;;;;0.10;0.10;;;14.80;99.90;;;;;;5065428;28;20264;-86
2021/08/10 01:37:30;;;;;;;0.10;0.10;;;14.70;99.90;;;;;;5065290;28;20276;-86
2021/08/10 01:39:58;;;;;;;0.20;0.20;;;14.80;99.90;;;;;;5074341;28;20200;-86
2021/08/10 01:42:26;;;;;;;0.10;0.10;;;15.00;99.90;;;;;;5089228;28;20238;-86
2021/08/10 01:44:53;;;;;;;0.10;0.10;;;15.00;99.90;;;;;;5072136;28;20181;-85
2021/08/10 01:47:20;;;;;;;0.70;0.30;;;15.10;99.90;;;;;;5073605;28;20190;-86
2021/08/10 01:49:47;;;;;;;0.17;0.17;;;15.10;99.90;;;;;;5075112;28;20242;-86
2021/08/10 01:52:18;;;;;;;0.30;0.13;;;15.20;99.90;;;;;;5069569;28;20203;-86
2021/08/10 01:54:45;;;;;;;1.70;0.10;;;15.00;99.90;;;;;;5074809;28;20181;-86
2021/08/10 01:57:11;;;;;;;0.20;0.20;;;14.80;99.90;;;;;;5092640;28;20192;-86
2021/08/10 01:59:38;;;;;;;0.10;0.10;;;14.70;99.90;;;;;;5092946;28;20257;-86
2021/08/10 02:02:06;;;;;;;0.30;0.30;;;14.50;99.90;;;;;;5074351;28;20180;-86
2021/08/10 02:04:32;;;;;;;0.20;0.20;;;14.40;99.90;;;;;;5092461;28;20652;-85
2021/08/10 02:06:59;;;;;;;0.20;0.20;;;14.50;99.90;;;;;;5074395;28;20276;-86
2021/08/10 02:09:24;;;;;;;0.10;0.10;;;14.60;99.90;;;;;;5074901;28;20185;-86
2021/08/10 02:11:54;;;;;;;0.10;0.10;;;14.80;99.90;;;;;;5074327;28;20530;-86
2021/08/10 02:14:23;;;;;;;0.30;0.30;;;14.70;99.90;;;;;;5074790;28;20185;-86
2021/08/10 02:16:50;;;;;;;0.20;0.20;;;14.70;99.90;;;;;;5074261;28;20183;-86
2021/08/10 02:19:17;;;;;;;0.20;0.20;;;14.80;99.90;;;;;;5074412;28;20538;-85
2021/08/10 02:21:51;;;;;;;0.10;0.10;;;14.80;99.90;;;;;;5075614;28;20170;-86
2021/08/10 02:24:27;;;;;;;0.20;0.20;;;14.60;99.90;;;;;;5074313;28;20234;-86
2021/08/10 02:27:06;;;;;;;0.10;0.10;;;14.60;99.90;;;;;;5071052;28;20189;-85
2021/08/10 02:29:39;;;;;;;0.53;0.20;;;14.60;99.90;;;;;;5074570;28;20177;-86
2021/08/10 02:32:06;;;;;;;0.10;0.10;;;14.70;99.90;;;;;;5072194;28;20180;-86
2021/08/10 02:34:33;;;;;;;0.37;0.37;;;14.80;99.90;;;;;;5074387;28;20173;-86
2021/08/10 02:37:00;;;;;;;0.10;0.10;;;14.90;99.90;;;;;;5074060;28;20256;-85
2021/08/10 02:39:27;;;;;;;0.73;0.27;;;14.90;99.90;;;;;;5073569;28;20180;-85
2021/08/10 02:41:55;;;;;;;0.83;0.83;;;15.20;99.90;;;;;;5084810;28;20192;-85
2021/08/10 02:44:23;;;;;;;0.20;0.20;;;15.40;99.90;;;;;;5068353;28;20180;-86
2021/08/10 02:46:49;;;;;;;0.10;0.10;;;15.60;99.90;;;;;;5066868;28;20188;-85
2021/08/10 02:49:14;;;;;;;0.10;0.10;;;15.70;99.90;;;;;;5068657;28;20181;-88
2021/08/10 02:51:40;;;;;;;0.30;0.27;;;15.80;99.90;;;;;;5076701;28;20194;-85
2021/08/10 02:54:06;;;;;;;0.20;0.20;;;15.90;99.90;;;;;;5077793;28;20233;-85
2021/08/10 02:56:37;;;;;;;0.20;0.20;;;15.90;99.90;;;;;;5074788;28;20688;-85
2021/08/10 02:59:14;;;;;;;1.07;0.57;;;16.00;99.90;;;;;;5088511;28;20209;-85
2021/08/10 03:02:08;;;;;;;0.33;0.33;;;16.00;99.90;;;;;;5099992;28;20217;-85
2021/08/10 03:04:47;;;;;;;0.10;0.10;;;15.90;99.90;;;;;;5070822;28;20966;-85
2021/08/10 03:07:13;;;;;;;0.10;0.10;;;15.60;99.90;;;;;;5072427;28;20192;-85
2021/08/10 03:09:40;;;;;;;0.30;0.30;;;15.50;99.90;;;;;;5095848;28;20554;-86
2021/08/10 03:12:08;;;;;;;0.27;0.27;;;15.70;99.90;;;;;;5077626;28;20185;-85
2021/08/10 03:14:35;;;;;;;0.20;0.20;;;15.90;99.90;;;;;;5096180;28;20198;-85
2021/08/10 03:17:06;;;;;;;0.10;0.10;;;15.90;99.90;;;;;;5077542;28;20183;-85
2021/08/10 03:19:35;;;;;;;0.53;0.53;;;16.00;99.90;;;;;;5095085;28;20179;-85
2021/08/10 03:22:02;;;;;;;0.20;0.20;;;16.10;99.90;;;;;;5094573;28;20215;-85
2021/08/10 03:24:28;;;;;;;0.40;0.30;;;16.10;99.90;;;;;;5076684;28;20187;-86
2021/08/10 03:26:58;;;;;;;0.13;0.13;;;16.20;99.90;;;;;;5077751;28;20270;-85
2021/08/10 03:29:24;;;;;;;0.37;0.37;;;16.20;99.90;;;;;;5076832;28;20182;-85
2021/08/10 03:31:51;;;;;;;0.67;0.47;;;16.00;99.90;;;;;;5079701;28;20186;-85
2021/08/10 03:34:18;;;;;;;0.10;0.10;;;16.00;99.90;;;;;;5076813;28;20205;-86
2021/08/10 03:36:45;;;;;;;0.10;0.10;;;16.00;99.90;;;;;;5089210;28;20187;-85
2021/08/10 03:39:11;;;;;;;0.20;0.20;;;16.00;99.90;;;;;;5073123;28;20230;-85
2021/08/10 03:41:38;;;;;;;0.10;0.10;;;16.00;99.90;;;;;;5094877;28;20692;-85
2021/08/10 03:44:04;;;;;;;0.10;0.10;;;16.10;99.90;;;;;;5077948;28;20243;-85
2021/08/10 03:46:31;;;;;;;0.40;0.27;;;16.10;99.90;;;;;;5095338;28;20198;-85
2021/08/10 03:48:58;;;;;;;0.20;0.20;;;16.10;99.90;;;;;;5094875;28;20174;-85
2021/08/10 03:51:26;;;;;;;0.10;0.10;;;16.10;99.90;;;;;;5094075;28;20201;-85
2021/08/10 03:53:51;;;;;;;0.10;0.10;;;16.10;99.90;;;;;;5076598;28;20205;-85
2021/08/10 03:56:22;;;;;;;0.70;0.20;;;16.10;99.90;;;;;;5073269;28;20199;-85
2021/08/10 03:58:49;;;;;;;0.10;0.10;;;16.00;99.90;;;;;;5088360;28;20188;-85
2021/08/10 04:01:16;;;;;;;0.30;0.30;;;16.10;99.90;;;;;;5071167;28;20212;-85
2021/08/10 04:03:44;;;;;;;0.20;0.20;;;16.20;99.90;;;;;;5075743;28;20744;-85
2021/08/10 04:06:11;;;;;;;0.20;0.20;;;16.30;99.90;;;;;;5073761;28;20644;-86
2021/08/10 04:08:37;;;;;;;0.10;0.10;;;16.30;99.90;;;;;;5093114;28;20190;-86
2021/08/10 04:11:05;;;;;;;0.17;0.17;;;16.30;99.90;;;;;;5074239;28;20187;-86
2021/08/10 04:13:34;;;;;;;0.30;0.30;;;16.30;99.90;;;;;;5093874;28;20219;-85
2021/08/10 04:16:03;;;;;;;0.33;0.33;;;16.30;99.90;;;;;;5075218;28;20194;-86
2021/08/10 04:18:32;;;;;;;0.17;0.17;;;16.20;99.90;;;;;;5083742;28;20187;-85
2021/08/10 04:20:58;;;;;;;0.40;0.40;;;16.20;99.90;;;;;;5089002;28;20317;-85
2021/08/10 04:23:24;;;;;;;0.10;0.10;;;16.30;99.90;;;;;;5075649;28;20226;-86
2021/08/10 04:25:49;;;;;;;9.17;0.50;;;16.30;99.90;;;;;;5072147;28;20187;-85
2021/08/10 04:28:15;;;;;;;0.10;0.10;;;16.30;99.90;;;;;;5076633;28;20214;-86
2021/08/10 04:30:42;;;;;;;0.10;0.10;;;16.20;99.90;;;;;;5068991;28;20187;-86
2021/08/10 04:33:09;;;;;;;0.30;0.30;;;16.30;99.90;;;;;;5075078;28;20752;-86
2021/08/10 04:35:35;;;;;;;0.20;0.20;;;16.30;99.90;;;;;;5093286;28;20658;-85
2021/08/10 04:38:03;;;;;;;3.30;0.40;;;16.30;99.90;;;;;;5076079;28;20178;-85
2021/08/10 04:40:29;;;;;;;0.10;0.10;;;16.40;99.90;;;;;;5085401;28;20203;-86
2021/08/10 04:42:55;;;;;;;0.20;0.20;;;16.40;99.90;;;;;;5093583;28;20268;-85
2021/08/10 04:45:21;;;;;;;0.20;0.20;;;16.40;99.90;;;;;;5075859;28;20259;-86
2021/08/10 04:47:47;;;;;;;0.53;0.47;;;16.40;99.90;;;;;;5072045;28;20832;-85
2021/08/10 04:50:13;;;;;;;0.37;0.37;;;16.40;99.90;;;;;;5074788;28;20192;-84
2021/08/10 04:52:38;;;;;;;0.20;0.20;;;16.30;99.90;;;;;;5094137;28;20579;-84
2021/08/10 04:55:06;;;;;;;0.30;0.30;;;16.20;99.90;;;;;;5072558;28;20282;-86
2021/08/10 04:57:31;;;;;;;0.20;0.20;;;16.30;99.90;;;;;;5075380;28;20183;-86
2021/08/10 04:59:57;;;;;;;0.10;0.10;;;16.30;99.90;;;;;;5093142;28;20351;-86
2021/08/10 05:02:22;;;;;;;0.20;0.20;;;16.30;99.90;;;;;;5076326;28;20221;-86
2021/08/10 05:04:48;;;;;;;5.27;1.00;;;16.20;99.90;;;;;;5077483;28;20279;-86
2021/08/10 05:07:13;;;;;;;0.37;0.37;;;16.30;99.90;;;;;;5088516;28;20663;-86
2021/08/10 05:09:40;;;;;;;0.30;0.30;;;16.30;99.90;;;;;;5064949;28;20691;-85
2021/08/10 05:12:07;;;;;;;0.10;0.10;;;16.30;99.90;;;;;;5073338;28;20234;-86
2021/08/10 05:14:32;;;;;;;0.10;0.10;;;16.30;99.90;;;;;;5069857;28;20183;-86
2021/08/10 05:16:58;;;;;;;0.57;0.57;;;16.30;99.90;;;;;;5074731;28;20753;-86
2021/08/10 05:19:24;;;;;;;0.10;0.10;;;16.30;99.90;;;;;;5071806;28;20188;-85
2021/08/10 05:21:49;;;;;;;0.30;0.30;;;16.30;99.90;;;;;;5092891;28;20186;-86
2021/08/10 05:24:15;;;;;;;0.20;0.20;;;16.30;99.90;;;;;;5092483;28;20210;-86
2021/08/10 05:26:40;;;;;;;0.30;0.30;;;16.30;99.90;;;;;;5093337;28;20248;-85
2021/08/10 05:29:06;;;;;;;0.20;0.20;;;16.30;99.90;;;;;;5084816;28;20702;-86
2021/08/10 05:31:32;;;;;;;0.20;0.20;;;16.30;99.90;;;;;;5074784;28;20692;-86
2021/08/10 05:33:57;;;;;;;0.10;0.10;;;16.30;99.90;;;;;;5092702;28;20632;-86
2021/08/10 05:36:23;;;;;;;0.10;0.10;;;16.30;99.90;;;;;;5075095;28;20239;-86
2021/08/10 05:38:50;;;;;;;0.10;0.10;;;16.50;99.90;;;;;;5074438;28;20245;-86
2021/08/10 05:41:16;;;;;;;0.20;0.20;;;16.60;99.90;;;;;;5074628;28;20209;-85
2021/08/10 05:43:42;;;;;;;0.20;0.20;;;16.60;99.90;;;;;;5074525;28;20260;-87
2021/08/10 05:46:07;;;;;;;0.20;0.20;;;16.70;99.90;;;;;;5074901;28;20667;-86
2021/08/10 05:48:33;;;;;;;0.20;0.20;;;16.70;99.90;;;;;;5074357;28;20259;-86
2021/08/10 05:51:00;;;;;;;2.10;0.20;;;16.70;99.90;;;;;;5074735;28;20214;-86
2021/08/10 05:53:26;;;;;;;0.20;0.20;;;16.60;99.90;;;;;;5089061;28;20199;-85
2021/08/10 05:55:51;;;;;;;0.20;0.20;;;16.60;99.90;;;;;;5074618;28;20194;-86
2021/08/10 05:58:17;;;;;;;0.10;0.10;;;16.60;99.90;;;;;;5091837;28;20263;-86
2021/08/10 06:00:43;;;;;;;0.20;0.20;;;16.60;99.90;;;;;;5074435;28;20282;-86
2021/08/10 06:03:08;;;;;;;0.40;0.40;;;16.70;99.90;;;;;;5067169;28;20401;-86
2021/08/10 06:05:34;;;;;;;0.20;0.20;;;16.70;99.90;;;;;;5071922;28;20283;-86
2021/08/10 06:08:00;;;;;;;0.20;0.20;;;16.70;99.90;;;;;;5073876;28;20186;-86
2021/08/10 06:10:26;;;;;;;0.30;0.30;;;16.80;99.90;;;;;;5074895;28;20644;-86
2021/08/10 06:12:52;;;;;;;0.33;0.33;;;16.90;99.90;;;;;;5073958;28;20222;-86
2021/08/10 06:15:18;;;;;;;0.20;0.20;;;16.90;99.90;;;;;;5074261;28;20647;-86
2021/08/10 06:17:44;;;;;;;0.40;0.40;;;16.90;99.90;;;;;;5073899;28;20695;-86
2021/08/10 06:20:10;;;;;;;0.30;0.30;;;16.90;99.90;;;;;;5075534;28;20222;-86
2021/08/10 06:22:44;;;;;;;0.20;0.20;;;17.00;99.90;;;;;;5092109;28;20204;-86
2021/08/10 06:25:10;;;;;;;1.10;0.33;;;17.00;99.90;;;;;;5065112;28;21036;-86
2021/08/10 06:27:36;;;;;;;0.20;0.20;;;17.00;99.90;;;;;;5069640;28;20237;-85
2021/08/10 06:30:02;;;;;;;0.10;0.10;;;17.10;99.90;;;;;;5074708;28;20194;-86
2021/08/10 06:32:27;;;;;;;0.20;0.20;;;17.20;99.90;;;;;;5071142;28;20627;-85
2021/08/10 06:34:53;;;;;;;1.10;0.53;;;17.20;99.90;;;;;;5088735;28;20202;-84
2021/08/10 06:37:18;;;;;;;0.10;0.10;;;17.30;99.90;;;;;;5069190;28;20273;-86
2021/08/10 06:39:46;;;;;;;0.17;0.17;;;17.20;99.90;;;;;;5083715;28;20239;-84
2021/08/10 06:42:12;;;;;;;0.10;0.10;;;17.40;99.90;;;;;;5069431;28;20200;-85
2021/08/10 06:44:37;;;;;;;0.20;0.20;;;17.50;99.90;;;;;;5076148;28;20191;-85
2021/08/10 06:47:03;;;;;;;0.10;0.10;;;17.60;99.90;;;;;;5087308;28;20183;-84
2021/08/10 06:49:30;;;;;;;0.10;0.10;;;17.60;99.90;;;;;;5066018;28;20644;-84
2021/08/10 06:51:56;;;;;;;0.47;0.23;;;17.60;99.90;;;;;;5092156;28;20176;-83
2021/08/10 06:54:23;;;;;;;0.10;0.10;;;17.60;99.90;;;;;;5091131;28;21351;-84
2021/08/10 06:56:48;;;;;;;0.43;0.30;;;17.60;99.90;;;;;;5076613;28;20191;-84
2021/08/10 06:59:15;;;;;;;0.10;0.10;;;17.70;99.90;;;;;;5068517;28;20181;-82
2021/08/10 07:01:41;;;;;;;0.37;0.30;;;17.80;99.90;;;;;;5071148;28;20232;-84
2021/08/10 07:04:06;;;;;;;0.30;0.30;;;17.90;99.90;;;;;;5086243;28;20287;-84
2021/08/10 07:06:32;;;;;;;2.30;0.20;;;17.90;99.90;;;;;;5084043;28;20193;-85
2021/08/10 07:09:04;;;;;;;0.20;0.20;;;18.10;99.90;;;;;;5090145;28;20306;-87
2021/08/10 07:11:29;;;;;;;0.53;0.53;;;18.20;99.90;;;;;;5087250;28;20180;-86
2021/08/10 07:13:55;;;;;;;0.27;0.27;;;18.40;99.90;;;;;;5066463;28;20205;-86
2021/08/10 07:16:21;;;;;;;0.20;0.20;;;18.70;99.90;;;;;;5088855;28;20664;-86
2021/08/10 07:18:46;;;;;;;1.10;0.30;;;19.00;99.90;;;;;;5071933;28;20233;-86
2021/08/10 07:21:12;;;;;;;0.20;0.20;;;19.10;99.90;;;;;;5073209;28;20257;-86
2021/08/10 07:23:37;;;;;;;0.30;0.30;;;19.00;99.90;;;;;;5072698;28;20192;-85
2021/08/10 07:26:03;;;;;;;0.30;0.30;;;19.10;99.90;;;;;;5090320;28;20199;-85
2021/08/10 07:28:28;;;;;;;0.20;0.20;;;19.20;99.90;;;;;;5070585;28;20196;-86
2021/08/10 07:30:54;;;;;;;0.13;0.13;;;19.50;99.90;;;;;;5089824;28;20225;-86
2021/08/10 07:33:19;;;;;;;0.20;0.20;;;19.60;99.90;;;;;;5069367;28;20687;-86
2021/08/10 07:35:45;;;;;;;0.30;0.23;;;19.60;99.90;;;;;;5073462;28;20184;-86
2021/08/10 07:38:11;;;;;;;0.37;0.37;;;19.50;99.90;;;;;;5086589;28;20200;-86
2021/08/10 07:40:37;;;;;;;0.30;0.30;;;19.40;99.90;;;;;;5074348;28;20234;-86
2021/08/10 07:43:02;;;;;;;0.37;0.37;;;19.40;99.90;;;;;;5092456;28;20216;-86
2021/08/10 07:45:28;;;;;;;0.20;0.20;;;19.50;99.90;;;;;;5094491;28;20826;-86
2021/08/10 07:47:54;;;;;;;0.10;0.10;;;19.60;99.90;;;;;;5076175;28;20229;-86
2021/08/10 07:50:20;;;;;;;0.30;0.20;;;19.80;99.90;;;;;;5076768;28;20184;-86
2021/08/10 07:52:47;;;;;;;0.20;0.20;;;20.00;99.90;;;;;;5098216;28;20216;-87
2021/08/10 07:55:13;;;;;;;0.80;0.50;;;20.20;99.90;;;;;;5090617;28;20180;-86
2021/08/10 07:57:42;;;;;;;0.30;0.20;;;20.20;99.90;;;;;;5085440;28;20200;-87
2021/08/10 08:00:09;;;;;;;0.10;0.10;;;20.10;99.90;;;;;;5075818;28;20691;-85
2021/08/10 08:02:34;;;;;;;0.50;0.50;;;20.00;99.90;;;;;;5083922;28;20208;-83
2021/08/10 08:05:00;;;;;;;0.47;0.47;;;19.90;99.90;;;;;;5071913;28;20191;-83
2021/08/10 08:07:25;;;;;;;0.20;0.20;;;20.00;99.90;;;;;;5089179;28;20649;-84
2021/08/10 08:09:51;;;;;;;0.37;0.37;;;20.30;99.90;;;;;;5091519;28;20192;-85
2021/08/10 08:12:17;;;;;;;0.20;0.20;;;20.50;99.90;;;;;;5090065;28;20368;-85
2021/08/10 08:14:44;;;;;;;1.80;0.30;;;20.50;99.90;;;;;;5073674;28;20180;-85
2021/08/10 08:17:11;;;;;;;3.93;0.50;;;20.60;99.90;;;;;;5089837;28;20234;-88
2021/08/10 08:19:37;;;;;;;1.47;0.30;;;20.70;99.90;;;;;;5071408;28;20239;-85
2021/08/10 08:22:03;;;;;;;0.40;0.40;;;20.80;99.90;;;;;;5076438;28;20184;-85
2021/08/10 08:24:28;;;;;;;1.43;0.60;;;20.90;99.90;;;;;;5088616;28;20651;-86
2021/08/10 08:26:54;;;;;;;0.20;0.20;;;21.00;99.90;;;;;;5094648;28;20669;-86
2021/08/10 08:29:19;;;;;;;0.10;0.10;;;21.10;99.90;;;;;;5076350;28;20566;-85
2021/08/10 08:31:45;;;;;;;0.97;0.40;;;21.10;99.90;;;;;;5076480;28;20267;-86
2021/08/10 08:34:11;;;;;;;0.20;0.20;;;21.20;99.90;;;;;;5093066;28;20279;-86
2021/08/10 08:36:36;;;;;;;0.30;0.30;;;21.50;99.90;;;;;;5072729;28;20185;-86
2021/08/10 08:39:04;;;;;;;0.87;0.87;;;21.60;99.90;;;;;;5075618;28;20180;-86
2021/08/10 08:41:29;;;;;;;0.20;0.20;;;21.80;99.90;;;;;;5093045;28;20208;-86
2021/08/10 08:43:55;;;;;;;0.20;0.20;;;21.70;99.90;;;;;;5074785;28;20707;-85
2021/08/10 08:46:22;;;;;;;0.20;0.20;;;21.80;99.90;;;;;;5069276;28;20216;-85
2021/08/10 08:48:48;;;;;;;0.30;0.30;;;21.80;99.90;;;;;;5089438;28;20185;-85
2021/08/10 08:51:17;;;;;;;0.57;0.40;;;21.90;99.90;;;;;;5074525;28;20258;-84
2021/08/10 08:53:53;;;;;;;1.53;0.40;;;22.20;99.90;;;;;;5073518;28;20208;-85
2021/08/10 08:56:21;;;;;;;0.47;0.30;;;22.40;99.90;;;;;;5090856;28;20210;-85
2021/08/10 08:58:47;;;;;;;0.30;0.30;;;22.50;99.90;;;;;;5074674;28;20220;-85
2021/08/10 09:01:13;;;;;;;0.83;0.57;;;22.90;99.90;;;;;;5074899;28;20223;-85
2021/08/10 09:03:39;;;;;;;0.20;0.20;;;22.90;99.90;;;;;;5074909;28;20265;-85
2021/08/10 09:06:04;;;;;;;0.20;0.20;;;23.00;99.90;;;;;;5075084;28;20184;-85
2021/08/10 09:08:33;;;;;;;0.20;0.20;;;23.00;99.90;;;;;;5092491;28;20185;-84
2021/08/10 09:11:04;;;;;;;0.20;0.20;;;23.20;99.90;;;;;;5093908;28;20548;-85
2021/08/10 09:13:31;;;;;;;0.57;0.30;;;23.20;99.90;;;;;;5089708;28;20269;-85
2021/08/10 09:16:02;;;;;;;0.43;0.40;;;23.30;99.90;;;;;;5071375;28;20262;-86
2021/08/10 09:18:28;;;;;;;3.80;0.30;;;23.40;99.90;;;;;;5067779;28;20574;-86
2021/08/10 09:21:01;;;;;;;0.67;0.40;;;23.70;99.90;;;;;;5092862;28;20215;-85
2021/08/10 09:23:52;;;;;;;0.10;0.10;;;23.80;99.90;;;;;;5091988;28;20200;-85
2021/08/10 09:26:36;;;;;;;0.40;0.40;;;24.10;99.90;;;;;;5092139;28;20219;-85
2021/08/10 09:29:02;;;;;;;0.43;0.40;;;24.20;99.90;;;;;;5071409;28;20241;-86
2021/08/10 09:31:40;;;;;;;0.37;0.37;;;24.20;99.90;;;;;;5074328;28;20202;-85
2021/08/10 09:34:19;;;;;;;0.37;0.37;;;24.50;99.90;;;;;;5073767;28;20212;-85
2021/08/10 09:36:45;;;;;;;0.17;0.17;;;24.50;99.90;;;;;;5083190;28;20191;-86
2021/08/10 09:39:11;;;;;;;1.00;0.40;;;24.60;99.90;;;;;;5092276;28;20184;-85
2021/08/10 09:41:36;;;;;;;1.03;0.50;;;24.80;99.90;;;;;;5092372;28;20311;-85
2021/08/10 09:44:19;;;;;;;0.30;0.30;;;25.10;99.90;;;;;;5074042;28;20635;-85
2021/08/10 09:46:50;;;;;;;0.50;0.20;;;25.20;99.90;;;;;;5074181;28;20184;-85
2021/08/10 09:49:18;;;;;;;0.47;0.47;;;25.50;99.90;;;;;;5069095;28;20180;-85
2021/08/10 09:51:47;;;;;;;0.50;0.40;;;25.60;99.90;;;;;;5084171;28;20184;-85
2021/08/10 09:54:14;;;;;;;0.63;0.40;;;25.50;99.90;;;;;;5071794;28;20211;-85
2021/08/10 09:56:55;;;;;;;0.17;0.17;;;25.40;99.90;;;;;;5072532;28;20195;-85
2021/08/10 09:59:27;;;;;;;0.20;0.20;;;25.10;99.90;;;;;;5069353;28;20184;-86
2021/08/10 10:01:56;;;;;;;0.30;0.30;;;25.10;99.90;;;;;;5073522;28;20211;-87
2021/08/10 10:04:29;;;;;;;0.20;0.20;;;25.10;99.90;;;;;;5074461;28;20267;-86
2021/08/10 10:06:58;;;;;;;0.40;0.40;;;25.20;99.90;;;;;;5092740;28;20933;-86
2021/08/10 10:09:26;;;;;;;0.20;0.20;;;25.50;99.90;;;;;;5074843;28;20274;-87
2021/08/10 10:11:55;;;;;;;0.57;0.57;;;25.70;99.90;;;;;;5074655;28;20188;-86
2021/08/10 10:14:22;;;;;;;0.30;0.30;;;25.90;99.90;;;;;;5075250;28;20219;-86
2021/08/10 10:16:50;;;;;;;0.20;0.20;;;25.90;99.90;;;;;;5075674;28;20875;-86
2021/08/10 10:19:18;;;;;;;0.77;0.40;;;25.90;99.90;;;;;;5093530;28;20215;-86
2021/08/10 10:22:03;;;;;;;0.50;0.50;;;25.80;99.90;;;;;;5074552;28;20676;-87
2021/08/10 10:24:34;;;;;;;1.50;1.03;;;25.90;99.90;;;;;;5092762;28;20186;-87
2021/08/10 10:27:03;;;;;;;0.83;0.40;;;25.90;99.90;;;;;;5092574;28;20259;-86
2021/08/10 10:29:30;;;;;;;0.47;0.47;;;25.90;99.90;;;;;;5092285;28;20203;-86
2021/08/10 10:31:56;;;;;;;0.50;0.47;;;25.90;99.90;;;;;;5074270;28;20192;-86
2021/08/10 10:34:23;;;;;;;0.63;0.57;;;26.10;99.90;;;;;;5074316;28;20232;-87
2021/08/10 10:36:49;;;;;;;0.80;0.43;;;26.30;99.90;;;;;;5074424;28;20184;-86
2021/08/10 10:39:30;;;;;;;0.50;0.50;;;26.60;99.90;;;;;;5073662;28;20215;-86
2021/08/10 10:41:59;;;;;;;0.50;0.50;;;26.70;99.90;;;;;;5074127;28;20624;-87
2021/08/10 10:44:45;;;;;;;0.40;0.40;;;26.70;99.90;;;;;;5061484;28;20555;-86
2021/08/10 10:47:20;;;;;;;0.23;0.23;;;26.70;99.90;;;;;;5073208;28;20184;-87
2021/08/10 10:49:47;;;;;;;0.30;0.30;;;26.30;99.90;;;;;;5073969;28;20172;-86
2021/08/10 10:52:16;;;;;;;0.30;0.30;;;26.00;99.90;;;;;;5074931;28;20183;-87
2021/08/10 10:54:46;;;;;;;2.63;1.53;;;26.10;99.90;;;;;;5073829;28;20228;-86
2021/08/10 10:57:30;;;;;;;0.30;0.30;;;26.00;99.90;;;;;;5074045;28;20180;-87
2021/08/10 11:00:05;;;;;;;0.87;0.60;;;25.70;99.90;;;;;;5074142;28;20192;-86
2021/08/10 11:02:32;;;;;;;0.40;0.40;;;25.60;99.90;;;;;;5091919;28;20260;-85
2021/08/10 11:05:11;;;;;;;1.37;0.60;;;25.50;99.90;;;;;;5092096;28;20184;-86
2021/08/10 11:07:40;;;;;;;0.20;0.20;;;25.10;99.90;;;;;;5073677;28;20236;-86
2021/08/10 11:10:39;;;;;;;1.10;0.37;;;25.00;99.90;;;;;;5074143;28;20184;-86
2021/08/10 11:13:25;;;;;;;0.40;0.40;;;25.10;99.90;;;;;;5076963;28;20726;-86
2021/08/10 11:15:51;;;;;;;0.50;0.27;;;25.40;99.90;;;;;;5095991;28;20548;-86
2021/08/10 11:18:16;;;;;;;0.20;0.20;;;25.70;99.90;;;;;;5077422;28;20275;-86
2021/08/10 11:21:04;;;;;;;0.40;0.40;;;26.00;99.90;;;;;;5077652;28;20208;-86
2021/08/10 11:23:31;;;;;;;0.97;0.47;;;26.10;99.90;;;;;;5059670;28;20205;-87
2021/08/10 11:26:05;;;;;;;0.73;0.67;;;26.10;99.90;;;;;;5077663;28;20180;-87
2021/08/10 11:28:36;;;;;;;0.53;0.40;;;25.90;99.90;;;;;;5077246;28;20176;-86
2021/08/10 11:31:06;;;;;;;0.53;0.53;;;25.90;99.90;;;;;;5095715;28;20184;-86
2021/08/10 11:33:32;;;;;;;0.60;0.60;;;25.80;99.90;;;;;;5074077;28;20669;-86
2021/08/10 11:36:10;;;;;;;0.60;0.60;;;25.80;99.90;;;;;;5092524;28;20183;-86
2021/08/10 11:38:55;;;;;;;0.60;0.30;;;26.00;99.90;;;;;;5076424;28;20202;-86
2021/08/10 11:41:27;;;;;;;0.53;0.40;;;26.30;99.90;;;;;;5069742;28;20212;-87
2021/08/10 11:43:55;;;;;;;0.33;0.30;;;26.60;99.90;;;;;;5077008;28;20206;-86
2021/08/10 11:46:22;;;;;;;0.40;0.40;;;26.70;99.90;;;;;;5096221;28;20187;-86
2021/08/10 11:48:51;;;;;;;0.43;0.43;;;26.90;99.90;;;;;;5079024;28;20687;-86
2021/08/10 11:51:38;;;;;;;0.40;0.40;;;26.90;99.90;;;;;;5077229;28;20188;-86
2021/08/10 11:54:17;;;;;;;2.77;0.70;;;26.90;99.90;;;;;;5095199;28;20200;-86
2021/08/10 11:57:01;;;;;;;0.30;0.30;;;26.80;99.90;;;;;;5081236;28;20180;-86
2021/08/10 11:59:27;;;;;;;0.83;0.30;;;26.90;99.90;;;;;;5076667;28;20671;-86
2021/08/10 12:02:00;;;;;;;0.47;0.47;;;27.10;99.90;;;;;;5095061;28;20201;-86
2021/08/10 12:04:28;;;;;;;0.30;0.30;;;27.20;99.90;;;;;;5068168;28;20320;-86
2021/08/10 12:06:56;;;;;;;1.23;0.83;;;27.10;99.90;;;;;;5094978;28;20187;-86
2021/08/10 12:09:26;;;;;;;0.73;0.50;;;27.10;99.90;;;;;;5076798;28;20191;-86
2021/08/10 12:11:57;;;;;;;1.03;1.00;;;27.10;99.90;;;;;;5077032;28;20274;-86
2021/08/10 12:14:25;;;;;;;0.73;0.73;;;26.60;99.90;;;;;;5094764;28;20188;-86
2021/08/10 12:17:01;;;;;;;0.73;0.63;;;26.70;99.90;;;;;;5094768;28;20184;-87
2021/08/10 12:19:39;;;;;;;0.90;0.90;;;26.80;99.90;;;;;;5076097;28;20613;-87
2021/08/10 12:22:09;;;;;;;0.60;0.60;;;26.70;99.90;;;;;;5076573;28;20195;-87
2021/08/10 12:24:41;;;;;;;0.57;0.57;;;26.60;99.90;;;;;;5075499;28;20721;-85
2021/08/10 12:27:08;;;;;;;2.10;0.60;;;26.50;99.90;;;;;;5094562;28;20164;-86
2021/08/10 12:29:39;;;;;;;0.73;0.40;;;26.90;99.90;;;;;;5076212;28;20184;-86
2021/08/10 12:32:07;;;;;;;0.37;0.37;;;26.90;99.90;;;;;;5076332;28;20266;-86
2021/08/10 12:34:35;;;;;;;0.40;0.40;;;27.10;99.90;;;;;;5076410;28;20237;-87
2021/08/10 12:37:02;;;;;;;0.43;0.43;;;27.30;99.90;;;;;;5076373;28;20198;-86
2021/08/10 12:39:28;;;;;;;0.67;0.67;;;27.00;99.90;;;;;;5075311;28;20180;-86
2021/08/10 12:41:59;;;;;;;2.63;1.10;;;27.30;99.90;;;;;;5076097;28;20695;-86
2021/08/10 12:44:27;;;;;;;1.27;0.80;;;27.60;99.90;;;;;;5094289;28;20213;-86
2021/08/10 12:46:57;;;;;;;0.73;0.73;;;27.50;99.90;;;;;;5070503;28;20181;-85
2021/08/10 12:49:36;;;;;;;2.60;0.50;;;27.70;99.90;;;;;;5093379;28;20296;-85
2021/08/10 12:52:10;;;;;;;0.60;0.60;;;27.70;99.90;;;;;;5090799;28;20770;-87
2021/08/10 12:54:55;;;;;;;1.83;0.70;;;27.70;99.90;;;;;;5074312;28;20188;-88